Latest Weather Observations for Kadina

IDS60801

Issued at 9:01 am CST Wednesday 19 June 2019 (issued every 10 minutes, with the page automatically refreshed every 10 minutes)

About weather observations | Map of weather stations | Latest weather observations for SA | Other Formats
Station Details ID: 022050 Name: KADINA AWS Lat: -33.97 Lon: 137.66 Height: 41.14 m
Data from the previous 72 hours. | See also: Recent months at Kadina
Date/Time
CST
Temp
°C
App
Temp
°C
Dew
Point
°C
Rel
Hum
%
Delta-T
°C
Wind Press
QNH
hPa
Press
MSL
hPa
Rain since
9am
mm
Dir  Spd
km/h
Gust
km/h
Spd
kts
Gust
kts
19/09:00am 5.3 4.1 4.4 94 0.4 CALM 0 0 0 0 1028.4 1028.4 0.0
19/08:30am 4.6 1.6 3.9 95 0.3 ENE 9 11 5 6 1028.0 1028.0 0.0
19/08:00am 3.1 0.2 2.4 95 0.3 NE 7 11 4 6 1027.8 1027.8 0.0
19/07:30am 1.6 -2.0 0.9 95 0.3 E 9 11 5 6 1027.4 1027.5 0.0
19/07:00am 1.1 -3.3 0.4 95 0.3 E 13 13 7 7 1027.2 1027.3 0.0
19/06:30am 0.5 -3.6 -0.2 95 0.2 ENE 11 11 6 6 1027.0 1027.1 0.0
19/06:00am 0.6 -3.5 -0.1 95 0.3 E 11 11 6 6 1026.8 1026.9 0.0
19/05:30am 0.5 -3.2 -0.2 95 0.2 E 9 11 5 6 1026.6 1026.7 0.0
19/05:00am 0.9 -2.8 0.2 95 0.3 ENE 9 11 5 6 1026.4 1026.5 0.0
19/04:30am 0.7 -3.4 0.0 95 0.3 ESE 11 13 6 7 1026.3 1026.4 0.0
19/04:00am 1.1 -3.3 0.4 95 0.3 ESE 13 17 7 9 1026.5 1026.6 0.0
19/03:30am 0.4 -4.1 -0.5 94 0.3 ESE 13 15 7 8 1026.5 1026.6 0.0
19/03:00am 0.8 -3.6 0.1 95 0.3 ESE 13 15 7 8 1026.5 1026.6 0.0
19/02:30am 0.9 -3.6 0.0 94 0.3 ESE 13 15 7 8 1026.7 1026.8 0.0
19/02:00am 1.5 -2.5 0.6 94 0.3 E 11 11 6 6 1026.6 1026.7 0.0
19/01:30am 1.7 -1.9 0.8 94 0.3 E 9 11 5 6 1026.6 1026.7 0.0
19/01:00am 1.7 -2.6 0.7 93 0.4 ESE 13 13 7 7 1026.8 1026.9 0.0
19/12:30am 2.1 -1.4 1.1 93 0.4 E 9 11 5 6 1026.7 1026.8 0.0
19/12:00am 2.2 -2.1 1.0 92 0.5 ESE 13 15 7 8 1026.9 1027.0 0.0
 
Date/Time
CST
Temp
°C
App
Temp
°C
Dew
Point
°C
Rel
Hum
%
Delta-T
°C
Wind Press
QNH
hPa
Press
MSL
hPa
Rain since
9am
mm
Dir  Spd
km/h
Gust
km/h
Spd
kts
Gust
kts
18/11:30pm 3.3 -0.1 2.1 92 0.5 E 9 11 5 6 1027.0 1027.1 0.0
18/11:00pm 3.5 0.5 2.2 91 0.5 ENE 7 7 4 4 1027.0 1027.1 0.0
18/10:30pm 3.7 0.7 2.2 90 0.6 E 7 9 4 5 1027.1 1027.2 0.0
18/10:00pm 4.1 0.8 2.5 89 0.6 E 9 13 5 7 1027.1 1027.2 0.0
18/09:30pm 4.9 2.1 3.1 88 0.7 E 7 9 4 5 1027.1 1027.2 0.0
18/09:00pm 5.5 2.8 3.7 88 0.8 ESE 7 9 4 5 1027.0 1027.1 0.0
18/08:30pm 5.2 2.1 3.4 88 0.7 ESE 9 11 5 6 1026.9 1027.0 0.0
18/08:00pm 5.4 2.3 3.6 88 0.8 SE 9 11 5 6 1026.6 1026.7 0.0
18/07:30pm 5.6 2.1 3.4 86 0.9 SE 11 13 6 7 1026.6 1026.7 0.0
18/07:00pm 6.7 3.4 4.4 85 1.0 SE 11 13 6 7 1026.4 1026.5 0.0
18/06:30pm 8.0 5.2 5.3 83 1.2 S 9 11 5 6 1026.3 1026.4 0.0
18/06:00pm 7.7 4.8 4.5 80 1.4 SSW 9 11 5 6 1026.1 1026.2 0.0
18/05:30pm 9.4 6.3 5.6 77 1.7 SW 11 13 6 7 1026.0 1026.1 0.0
18/05:00pm 11.3 7.6 6.2 71 2.4 SW 15 19 8 10 1025.7 1025.8 0.0
18/04:30pm 11.9 7.8 6.0 67 2.8 SW 17 20 9 11 1025.5 1025.6 0.0
18/04:00pm 12.4 8.3 6.0 65 3.0 SW 17 22 9 12 1025.3 1025.4 0.0
18/03:30pm 12.9 7.9 4.8 58 3.7 SW 20 28 11 15 1025.2 1025.3 0.0
18/03:00pm 13.3 7.9 4.7 56 3.9 SW 22 28 12 15 1025.1 1025.2 0.0
18/02:30pm 13.2 7.7 4.1 54 4.1 SW 22 30 12 16 1025.0 1025.1 0.0
18/02:00pm 13.3 8.5 5.7 60 3.6 SW 20 28 11 15 1025.0 1025.1 0.0
18/01:30pm 12.7 8.5 5.6 62 3.3 SSW 17 28 9 15 1025.1 1025.2 0.0
18/01:00pm 12.4 8.8 6.7 68 2.7 S 15 20 8 11 1025.3 1025.4 0.0
18/12:30pm 12.8 8.2 6.6 66 3.0 S 20 28 11 15 1025.5 1025.6 0.0
18/12:00pm 13.8 10.1 6.4 61 3.5 SSW 15 22 8 12 1026.0 1026.1 0.0
18/11:30am 13.3 8.3 6.6 64 3.2 SSW 22 30 12 16 1026.1 1026.2 0.0
18/11:00am 13.1 8.6 6.9 66 3.0 S 20 26 11 14 1026.2 1026.3 0.0
18/10:30am 12.3 7.6 6.1 66 2.9 S 20 26 11 14 1026.2 1026.3 0.0
18/10:00am 12.1 8.7 7.6 74 2.2 S 15 20 8 11 1026.2 1026.3 0.0
18/09:30am 11.9 8.8 7.4 74 2.2 S 13 17 7 9 1025.6 1025.7 0.0
18/09:00am 10.8 7.8 7.5 80 1.6 SSW 13 17 7 9 1025.2 1025.3 2.0
18/08:30am 8.8 6.0 6.9 88 0.9 SSE 11 13 6 7 1024.6 1024.7 2.0
18/08:00am 7.3 4.2 5.4 88 0.8 SSE 11 13 6 7 1024.2 1024.3 2.0
18/07:30am 7.9 4.2 6.2 89 0.8 SSE 15 19 8 10 1023.9 1024.0 2.0
18/07:00am 7.2 3.7 5.5 89 0.8 SSE 13 17 7 9 1023.7 1023.8 2.0
18/06:30am 8.3 5.0 6.4 88 0.9 S 13 15 7 8 1023.3 1023.4 2.0
18/06:00am 8.7 4.3 6.7 87 0.9 S 19 30 10 16 1022.8 1022.9 2.0
18/05:30am 7.7 4.2 5.5 86 1.0 SSE 13 13 7 7 1022.6 1022.7 1.2
18/05:00am 8.7 5.5 6.7 87 0.9 S 13 20 7 11 1022.2 1022.3 1.2
18/04:30am 9.1 5.9 6.9 86 1.0 SSW 13 15 7 8 1022.0 1022.1 1.2
18/04:00am 9.9 6.8 7.2 83 1.3 SW 13 17 7 9 1021.9 1022.0 1.2
18/03:30am 10.6 6.0 6.7 77 1.8 SW 20 28 11 15 1021.9 1022.0 1.2
18/03:00am 10.4 6.6 7.5 82 1.4 SW 17 30 9 16 1021.9 1022.0 1.2
18/02:30am 10.7 6.3 7.4 80 1.6 SSW 20 26 11 14 1021.7 1021.8 1.2
18/02:00am 11.0 5.7 6.9 76 1.9 SW 24 32 13 17 1021.5 1021.6 1.2
18/01:30am 10.5 6.2 7.2 80 1.6 SW 19 24 10 13 1021.0 1021.1 1.2
18/01:00am 10.9 6.6 8.0 82 1.4 SSW 20 26 11 14 1021.0 1021.1 1.2
18/12:30am 11.1 9.4 9.9 92 0.6 SSW 9 13 5 7 1020.9 1021.0 1.2
18/12:00am 11.1 9.0 9.9 92 0.6 SW 11 15 6 8 1020.9 1021.0 1.2
 
Date/Time
CST
Temp
°C
App
Temp
°C
Dew
Point
°C
Rel
Hum
%
Delta-T
°C
Wind Press
QNH
hPa
Press
MSL
hPa
Rain since
9am
mm
Dir  Spd
km/h
Gust
km/h
Spd
kts
Gust
kts
17/11:30pm 11.3 7.1 9.9 91 0.7 WSW 22 44 12 24 1021.0 1021.1 1.2
17/11:00pm 11.8 7.8 10.5 92 0.7 W 22 33 12 18 1020.7 1020.8 1.2
17/10:30pm 12.8 6.6 10.2 84 1.3 W 33 43 18 23 1020.7 1020.8 0.0
17/10:00pm 13.2 7.6 8.7 74 2.3 WNW 28 35 15 19 1020.5 1020.6 0.0
17/09:30pm 13.2 7.6 8.9 75 2.2 NW 28 37 15 20 1020.4 1020.5 0.0
17/09:00pm 13.5 9.4 8.6 72 2.5 NW 20 30 11 16 1020.3 1020.4 0.0
17/08:30pm 13.0 9.5 8.7 75 2.1 NW 17 20 9 11 1020.3 1020.4 0.0
17/08:00pm 13.3 9.8 8.6 73 2.4 WNW 17 20 9 11 1020.6 1020.7 0.0
17/07:30pm 13.2 9.5 7.9 70 2.6 WNW 17 20 9 11 1020.6 1020.7 0.0
17/07:00pm 13.7 8.5 7.2 65 3.2 WNW 24 35 13 19 1020.5 1020.6 0.0
17/06:30pm 13.6 9.5 8.0 69 2.8 NW 19 22 10 12 1020.3 1020.4 0.0
17/06:00pm 13.9 9.5 7.4 65 3.2 NW 20 - 11 - - 1020.2 -
17/05:30pm 13.3 10.2 9.0 75 2.2 NNW 15 20 8 11 1020.0 1020.1 0.0
17/05:00pm 13.6 10.1 8.7 72 2.5 N 17 20 9 11 1020.1 1020.2 0.0
17/04:30pm 14.0 9.9 7.8 66 3.1 NNW 19 24 10 13 1020.3 1020.4 0.0
17/04:00pm 14.2 9.8 7.5 64 3.3 N 20 26 11 14 1020.3 1020.4 0.0
17/03:30pm 14.4 10.2 8.1 66 3.1 NNW 20 28 11 15 1020.4 1020.5 0.0
17/03:00pm 14.5 10.4 8.5 67 3.0 NNW 20 28 11 15 1020.4 1020.5 0.0
17/02:30pm 14.5 10.2 8.0 65 3.2 NNW 20 24 11 13 1020.6 1020.7 0.0
17/02:00pm 13.9 9.9 8.9 72 2.5 NNW 20 24 11 13 1020.9 1021.0 0.0
17/01:30pm 13.1 9.3 9.9 81 1.6 NW 20 26 11 14 1021.3 1021.4 0.0
17/01:00pm 13.8 10.1 9.6 76 2.2 NNW 19 22 10 12 1021.5 1021.6 0.0
17/12:30pm 14.0 10.6 9.0 72 2.5 NNW 17 20 9 11 1021.7 1021.8 0.0
17/12:00pm 13.8 10.5 9.6 76 2.1 NNW 17 20 9 11 1022.2 1022.3 0.0
17/11:30am 13.7 9.7 10.3 80 1.8 NNW 22 26 12 14 1022.7 1022.8 0.0
17/11:00am 13.6 9.8 11.3 86 1.2 NNW 22 28 12 15 1023.0 1023.1 0.0
17/10:30am 12.8 8.9 10.9 88 1.0 N 22 26 12 14 1023.2 1023.3 0.0
17/10:00am 12.4 10.3 11.0 91 0.7 N 13 15 7 8 1023.0 1023.1 0.0
17/09:30am 12.0 10.2 10.9 93 0.6 NNE 11 15 6 8 1022.9 1023.0 0.0
17/09:00am 10.5 8.8 9.7 95 0.4 NNE 9 13 5 7 1022.9 1023.0 0.2
17/08:30am 8.7 6.1 7.9 95 0.4 NE 11 13 6 7 1022.7 1022.8 0.2
17/08:00am 7.3 4.8 6.6 95 0.3 NE 9 11 5 6 1022.6 1022.7 0.2
17/07:30am 6.4 3.3 5.7 95 0.3 NE 11 13 6 7 1022.7 1022.8 0.2
17/07:00am 4.7 1.6 3.8 94 0.4 NE 9 11 5 6 1022.7 1022.8 0.2
17/06:30am 5.0 1.6 4.1 94 0.4 NE 11 11 6 6 1022.4 1022.5 0.2
17/06:00am 4.6 1.1 3.7 94 0.4 ENE 11 11 6 6 1022.1 1022.2 0.2
17/05:30am 3.8 0.6 2.9 94 0.4 ENE 9 9 5 5 1021.9 1022.0 0.2
17/05:00am 4.3 1.2 3.4 94 0.4 ENE 9 9 5 5 1022.0 1022.1 0.2
17/04:30am 4.2 1.0 3.3 94 0.4 ENE 9 11 5 6 1022.1 1022.2 0.2
17/04:00am 4.2 1.0 3.2 93 0.4 ENE 9 9 5 5 1022.2 1022.3 0.2
17/03:30am 3.8 0.6 2.8 93 0.4 E 9 11 5 6 1022.2 1022.3 0.2
17/03:00am 3.6 -0.1 2.6 93 0.4 E 11 13 6 7 1022.3 1022.4 0.2
17/02:30am 3.5 0.2 2.5 93 0.4 ENE 9 11 5 6 1022.6 1022.7 0.2
17/02:00am 3.8 0.6 2.8 93 0.4 ENE 9 9 5 5 1022.7 1022.8 0.2
17/01:30am 4.0 1.2 3.0 93 0.4 E 7 9 4 5 1022.6 1022.7 0.2
17/01:00am 4.0 0.8 3.0 93 0.4 E 9 11 5 6 1022.8 1022.9 0.2
17/12:30am 4.0 0.4 2.8 92 0.5 E 11 11 6 6 1022.9 1023.0 0.2
17/12:00am 4.0 0.4 2.8 92 0.5 E 11 11 6 6 1023.3 1023.4 0.2
 
Date/Time
CST
Temp
°C
App
Temp
°C
Dew
Point
°C
Rel
Hum
%
Delta-T
°C
Wind Press
QNH
hPa
Press
MSL
hPa
Rain since
9am
mm
Dir  Spd
km/h
Gust
km/h
Spd
kts
Gust
kts
16/11:30pm 4.5 0.6 3.3 92 0.5 ESE 13 13 7 7 1023.1 1023.2 0.2
16/11:00pm 5.1 2.0 3.8 91 0.5 ESE 9 11 5 6 1023.3 1023.4 0.2
16/10:30pm 5.3 1.9 4.0 91 0.5 ESE 11 13 6 7 1023.3 1023.4 0.2
16/10:00pm 5.5 2.5 4.2 91 0.6 ESE 9 11 5 6 1023.3 1023.4 0.2
16/09:30pm 5.7 2.3 4.2 90 0.6 ESE 11 13 6 7 1023.3 1023.4 0.2
16/09:00pm 6.4 3.2 4.9 90 0.7 ESE 11 11 6 6 1023.3 1023.4 0.2
16/08:30pm 6.7 3.5 5.0 89 0.7 ESE 11 11 6 6 1023.2 1023.3 0.2
16/08:00pm 7.2 4.4 5.0 86 1.0 E 9 13 5 7 1023.0 1023.1 0.2
16/07:30pm 9.4 7.5 6.8 84 1.2 NNE 6 7 3 4 1022.7 1022.8 0.2
16/07:00pm 9.5 7.4 6.6 82 1.4 N 7 9 4 5 1022.4 1022.5 0.2
16/06:30pm 10.5 8.1 7.2 80 1.6 N 9 9 5 5 1022.2 1022.3 0.2
16/06:00pm 10.9 8.2 7.2 78 1.8 N 11 13 6 7 1022.0 1022.1 0.2
16/05:30pm 11.4 8.6 7.1 75 2.1 N 11 13 6 7 1021.8 1021.9 0.2
16/05:00pm 13.4 10.9 8.0 70 2.7 N 11 11 6 6 1021.7 1021.8 0.2
16/04:30pm 15.1 12.8 7.6 61 3.7 NNW 9 9 5 5 1021.4 1021.5 0.2
16/04:00pm 15.5 12.4 7.3 58 4.1 NNW 13 17 7 9 1021.4 1021.5 0.2
16/03:30pm 15.8 13.3 6.5 54 4.5 NNW 9 15 5 8 1021.3 1021.4 0.2
16/03:00pm 16.1 13.7 7.1 55 4.4 N 9 15 5 8 1021.0 1021.1 0.2
16/02:30pm 15.7 13.0 7.2 57 4.2 N 11 19 6 10 1021.0 1021.1 0.2
16/02:00pm 15.8 12.7 7.3 57 4.2 NNW 13 17 7 9 1021.1 1021.2 0.2
16/01:30pm 15.9 12.9 7.7 58 4.1 NNW 13 19 7 10 1021.3 1021.4 0.2
16/01:00pm 15.5 11.9 6.8 56 4.3 NNW 15 20 8 11 1021.4 1021.5 0.2
16/12:30pm 15.4 12.6 6.9 57 4.2 NNW 11 17 6 9 1021.4 1021.5 0.2
16/12:00pm 15.2 12.9 7.3 59 3.9 NW 9 15 5 8 1021.6 1021.7 0.0
16/11:30am 14.7 12.4 7.3 61 3.6 NW 9 15 5 8 1022.0 1022.1 0.0
16/11:00am 14.4 11.2 6.7 60 3.7 NW 13 17 7 9 1022.3 1022.4 0.0
16/10:30am 14.2 10.4 7.7 65 3.2 NNW 17 24 9 13 1022.3 1022.4 0.0
16/10:00am 14.0 12.3 10.0 77 2.1 N 9 13 5 7 1022.2 1022.3 0.0
16/09:30am 12.8 11.8 10.9 88 1.0 NE 7 9 4 5 1022.0 1022.1 0.0

Other formats

Comma delimited format used in spreadsheet applications
http://www.bom.gov.au/fwo/IDS60801/IDS60801.94685.axf

JavaScript Object Notation format (JSON) in row-major order
http://www.bom.gov.au/fwo/IDS60801/IDS60801.94685.json

Data quality

Most of these data are generated automatically and are frequently updated. Quality checks on data are not normally performed. It is possible for incorrect values to appear. Refer to information at About Latest Weather Observations and please check the disclaimer before using these data.